sensor_id;sensor_type;location;lat;lon;timestamp;P1;durP1;ratioP1;P2;durP2;ratioP2
18443;SDS011;9350;53.176;8.194;2023-12-22T00:02:18;12.45;;;1.63;;
18443;SDS011;9350;53.176;8.194;2023-12-22T00:04:46;12.18;;;1.80;;
18443;SDS011;9350;53.176;8.194;2023-12-22T00:07:13;10.15;;;2.45;;
18443;SDS011;9350;53.176;8.194;2023-12-22T00:09:40;10.48;;;1.98;;
18443;SDS011;9350;53.176;8.194;2023-12-22T00:12:07;7.70;;;1.55;;
18443;SDS011;9350;53.176;8.194;2023-12-22T00:14:33;8.90;;;1.88;;
18443;SDS011;9350;53.176;8.194;2023-12-22T00:17:02;4.72;;;1.30;;
18443;SDS011;9350;53.176;8.194;2023-12-22T00:19:29;7.85;;;1.60;;
18443;SDS011;9350;53.176;8.194;2023-12-22T00:21:57;7.50;;;1.60;;
18443;SDS011;9350;53.176;8.194;2023-12-22T00:24:24;7.03;;;1.55;;
18443;SDS011;9350;53.176;8.194;2023-12-22T00:26:51;16.45;;;2.13;;
18443;SDS011;9350;53.176;8.194;2023-12-22T00:29:18;12.90;;;1.80;;
18443;SDS011;9350;53.176;8.194;2023-12-22T00:31:45;7.85;;;1.58;;
18443;SDS011;9350;53.176;8.194;2023-12-22T00:34:12;10.57;;;1.98;;
18443;SDS011;9350;53.176;8.194;2023-12-22T00:36:38;9.27;;;1.85;;
18443;SDS011;9350;53.176;8.194;2023-12-22T00:39:06;5.82;;;1.58;;
18443;SDS011;9350;53.176;8.194;2023-12-22T00:41:32;10.77;;;1.80;;
18443;SDS011;9350;53.176;8.194;2023-12-22T00:43:59;12.18;;;1.67;;
18443;SDS011;9350;53.176;8.194;2023-12-22T00:46:26;16.17;;;2.30;;
18443;SDS011;9350;53.176;8.194;2023-12-22T00:48:53;11.10;;;1.98;;
18443;SDS011;9350;53.176;8.194;2023-12-22T00:51:19;15.80;;;2.45;;
18443;SDS011;9350;53.176;8.194;2023-12-22T00:53:46;11.18;;;1.88;;
18443;SDS011;9350;53.176;8.194;2023-12-22T00:56:15;12.38;;;1.90;;
18443;SDS011;9350;53.176;8.194;2023-12-22T00:58:41;17.92;;;2.15;;
18443;SDS011;9350;53.176;8.194;2023-12-22T01:01:08;18.65;;;2.60;;
18443;SDS011;9350;53.176;8.194;2023-12-22T01:03:35;13.40;;;2.08;;
18443;SDS011;9350;53.176;8.194;2023-12-22T01:06:02;14.52;;;2.38;;
18443;SDS011;9350;53.176;8.194;2023-12-22T01:08:29;18.38;;;2.20;;
18443;SDS011;9350;53.176;8.194;2023-12-22T01:10:55;18.35;;;2.55;;
18443;SDS011;9350;53.176;8.194;2023-12-22T01:13:24;16.15;;;2.95;;
18443;SDS011;9350;53.176;8.194;2023-12-22T01:15:50;13.27;;;2.05;;
18443;SDS011;9350;53.176;8.194;2023-12-22T01:18:17;13.07;;;1.92;;
18443;SDS011;9350;53.176;8.194;2023-12-22T01:20:44;6.47;;;1.80;;
18443;SDS011;9350;53.176;8.194;2023-12-22T01:23:11;8.73;;;1.70;;
18443;SDS011;9350;53.176;8.194;2023-12-22T01:25:37;7.93;;;1.30;;
18443;SDS011;9350;53.176;8.194;2023-12-22T01:28:04;3.63;;;1.27;;
18443;SDS011;9350;53.176;8.194;2023-12-22T01:30:32;5.03;;;1.55;;
18443;SDS011;9350;53.176;8.194;2023-12-22T01:32:59;10.02;;;2.17;;
18443;SDS011;9350;53.176;8.194;2023-12-22T01:35:26;13.77;;;1.85;;
18443;SDS011;9350;53.176;8.194;2023-12-22T01:37:53;12.18;;;2.17;;
18443;SDS011;9350;53.176;8.194;2023-12-22T01:40:21;12.38;;;2.17;;
18443;SDS011;9350;53.176;8.194;2023-12-22T01:42:48;16.80;;;2.33;;
18443;SDS011;9350;53.176;8.194;2023-12-22T01:45:15;14.60;;;2.65;;
18443;SDS011;9350;53.176;8.194;2023-12-22T01:47:44;16.05;;;2.25;;
18443;SDS011;9350;53.176;8.194;2023-12-22T01:50:11;16.08;;;2.20;;
18443;SDS011;9350;53.176;8.194;2023-12-22T01:52:39;12.32;;;1.80;;
18443;SDS011;9350;53.176;8.194;2023-12-22T01:55:10;10.00;;;1.80;;
18443;SDS011;9350;53.176;8.194;2023-12-22T01:57:38;8.45;;;1.85;;
18443;SDS011;9350;53.176;8.194;2023-12-22T02:00:06;11.82;;;1.95;;
18443;SDS011;9350;53.176;8.194;2023-12-22T02:02:33;11.05;;;1.85;;
18443;SDS011;9350;53.176;8.194;2023-12-22T02:05:02;10.30;;;1.85;;
18443;SDS011;9350;53.176;8.194;2023-12-22T02:07:29;12.25;;;2.28;;
18443;SDS011;9350;53.176;8.194;2023-12-22T02:09:56;9.88;;;2.70;;
18443;SDS011;9350;53.176;8.194;2023-12-22T02:12:22;10.95;;;1.98;;
18443;SDS011;9350;53.176;8.194;2023-12-22T02:14:49;12.75;;;2.15;;
18443;SDS011;9350;53.176;8.194;2023-12-22T02:17:18;9.57;;;1.98;;
18443;SDS011;9350;53.176;8.194;2023-12-22T02:19:50;11.75;;;2.10;;
18443;SDS011;9350;53.176;8.194;2023-12-22T02:22:18;10.70;;;1.90;;
18443;SDS011;9350;53.176;8.194;2023-12-22T02:24:47;9.68;;;1.80;;
18443;SDS011;9350;53.176;8.194;2023-12-22T02:27:15;7.53;;;1.60;;
18443;SDS011;9350;53.176;8.194;2023-12-22T02:29:50;12.77;;;2.08;;
18443;SDS011;9350;53.176;8.194;2023-12-22T02:32:22;10.95;;;1.45;;
18443;SDS011;9350;53.176;8.194;2023-12-22T02:34:53;8.52;;;1.80;;
18443;SDS011;9350;53.176;8.194;2023-12-22T02:37:22;11.88;;;2.00;;
18443;SDS011;9350;53.176;8.194;2023-12-22T02:39:51;16.65;;;2.45;;
18443;SDS011;9350;53.176;8.194;2023-12-22T02:42:18;9.68;;;1.98;;
18443;SDS011;9350;53.176;8.194;2023-12-22T02:44:48;14.15;;;2.38;;
18443;SDS011;9350;53.176;8.194;2023-12-22T02:47:15;10.90;;;2.03;;
18443;SDS011;9350;53.176;8.194;2023-12-22T02:49:41;13.25;;;2.20;;
18443;SDS011;9350;53.176;8.194;2023-12-22T02:52:08;18.63;;;3.05;;
18443;SDS011;9350;53.176;8.194;2023-12-22T02:54:35;11.43;;;2.30;;
18443;SDS011;9350;53.176;8.194;2023-12-22T02:57:06;15.10;;;2.45;;
18443;SDS011;9350;53.176;8.194;2023-12-22T02:59:33;5.03;;;1.63;;
18443;SDS011;9350;53.176;8.194;2023-12-22T03:01:59;7.90;;;2.08;;
18443;SDS011;9350;53.176;8.194;2023-12-22T03:04:27;12.43;;;2.45;;
18443;SDS011;9350;53.176;8.194;2023-12-22T03:06:53;12.70;;;2.33;;
18443;SDS011;9350;53.176;8.194;2023-12-22T03:09:20;16.92;;;2.75;;
18443;SDS011;9350;53.176;8.194;2023-12-22T03:11:47;13.18;;;2.17;;
18443;SDS011;9350;53.176;8.194;2023-12-22T03:14:15;13.70;;;2.30;;
18443;SDS011;9350;53.176;8.194;2023-12-22T03:16:42;11.57;;;2.45;;
18443;SDS011;9350;53.176;8.194;2023-12-22T03:19:09;13.20;;;2.45;;
18443;SDS011;9350;53.176;8.194;2023-12-22T03:21:36;13.88;;;2.55;;
18443;SDS011;9350;53.176;8.194;2023-12-22T03:24:03;14.80;;;2.35;;
18443;SDS011;9350;53.176;8.194;2023-12-22T03:26:30;6.15;;;1.45;;
18443;SDS011;9350;53.176;8.194;2023-12-22T03:28:56;14.82;;;1.77;;
18443;SDS011;9350;53.176;8.194;2023-12-22T03:31:24;7.40;;;1.65;;
18443;SDS011;9350;53.176;8.194;2023-12-22T03:33:51;11.35;;;2.10;;
18443;SDS011;9350;53.176;8.194;2023-12-22T03:36:18;9.90;;;2.00;;
18443;SDS011;9350;53.176;8.194;2023-12-22T03:38:45;10.45;;;1.70;;
18443;SDS011;9350;53.176;8.194;2023-12-22T03:41:12;9.65;;;2.20;;
18443;SDS011;9350;53.176;8.194;2023-12-22T03:43:38;14.80;;;1.85;;
18443;SDS011;9350;53.176;8.194;2023-12-22T03:46:05;8.32;;;2.10;;
18443;SDS011;9350;53.176;8.194;2023-12-22T03:48:33;11.82;;;2.38;;
18443;SDS011;9350;53.176;8.194;2023-12-22T03:51:00;12.95;;;2.33;;
18443;SDS011;9350;53.176;8.194;2023-12-22T03:53:27;8.65;;;1.98;;
18443;SDS011;9350;53.176;8.194;2023-12-22T03:55:54;15.57;;;2.45;;
18443;SDS011;9350;53.176;8.194;2023-12-22T03:58:21;15.02;;;2.90;;
18443;SDS011;9350;53.176;8.194;2023-12-22T04:00:49;15.80;;;2.63;;
18443;SDS011;9350;53.176;8.194;2023-12-22T04:03:16;16.85;;;2.83;;
18443;SDS011;9350;53.176;8.194;2023-12-22T04:05:44;16.08;;;2.80;;
18443;SDS011;9350;53.176;8.194;2023-12-22T04:08:11;15.10;;;2.58;;
18443;SDS011;9350;53.176;8.194;2023-12-22T04:10:38;17.05;;;2.65;;
18443;SDS011;9350;53.176;8.194;2023-12-22T04:13:04;16.23;;;3.35;;
18443;SDS011;9350;53.176;8.194;2023-12-22T04:15:31;18.08;;;2.95;;
18443;SDS011;9350;53.176;8.194;2023-12-22T04:17:58;16.65;;;2.70;;
18443;SDS011;9350;53.176;8.194;2023-12-22T04:20:25;24.95;;;2.90;;
18443;SDS011;9350;53.176;8.194;2023-12-22T04:22:53;19.60;;;2.78;;
18443;SDS011;9350;53.176;8.194;2023-12-22T04:25:19;19.40;;;2.92;;
18443;SDS011;9350;53.176;8.194;2023-12-22T04:27:47;17.27;;;3.47;;
18443;SDS011;9350;53.176;8.194;2023-12-22T04:30:14;16.10;;;2.63;;
18443;SDS011;9350;53.176;8.194;2023-12-22T04:32:41;17.65;;;3.03;;
18443;SDS011;9350;53.176;8.194;2023-12-22T04:35:08;11.15;;;2.28;;
18443;SDS011;9350;53.176;8.194;2023-12-22T04:37:35;12.13;;;2.78;;
18443;SDS011;9350;53.176;8.194;2023-12-22T04:40:03;15.02;;;2.70;;
18443;SDS011;9350;53.176;8.194;2023-12-22T04:42:30;11.95;;;2.67;;
18443;SDS011;9350;53.176;8.194;2023-12-22T04:44:57;9.68;;;2.20;;
18443;SDS011;9350;53.176;8.194;2023-12-22T04:47:24;16.27;;;2.28;;
18443;SDS011;9350;53.176;8.194;2023-12-22T04:49:51;18.23;;;2.75;;
18443;SDS011;9350;53.176;8.194;2023-12-22T04:52:18;18.00;;;2.60;;
18443;SDS011;9350;53.176;8.194;2023-12-22T04:54:44;18.20;;;2.60;;
18443;SDS011;9350;53.176;8.194;2023-12-22T04:57:13;13.07;;;2.38;;
18443;SDS011;9350;53.176;8.194;2023-12-22T04:59:39;16.35;;;2.50;;
18443;SDS011;9350;53.176;8.194;2023-12-22T05:02:06;18.30;;;3.22;;
18443;SDS011;9350;53.176;8.194;2023-12-22T05:04:33;15.25;;;2.97;;
18443;SDS011;9350;53.176;8.194;2023-12-22T05:07:00;10.63;;;1.88;;
18443;SDS011;9350;53.176;8.194;2023-12-22T05:09:31;8.85;;;1.83;;
18443;SDS011;9350;53.176;8.194;2023-12-22T05:11:58;11.63;;;2.10;;
18443;SDS011;9350;53.176;8.194;2023-12-22T05:14:26;8.52;;;1.98;;
18443;SDS011;9350;53.176;8.194;2023-12-22T05:16:53;7.35;;;1.50;;
18443;SDS011;9350;53.176;8.194;2023-12-22T05:19:21;8.85;;;1.85;;
18443;SDS011;9350;53.176;8.194;2023-12-22T05:21:48;8.57;;;1.65;;
18443;SDS011;9350;53.176;8.194;2023-12-22T05:24:17;13.82;;;1.70;;
18443;SDS011;9350;53.176;8.194;2023-12-22T05:26:44;2.92;;;1.33;;
18443;SDS011;9350;53.176;8.194;2023-12-22T05:29:11;9.60;;;1.65;;
18443;SDS011;9350;53.176;8.194;2023-12-22T05:31:39;3.38;;;1.17;;
18443;SDS011;9350;53.176;8.194;2023-12-22T05:34:06;8.40;;;1.35;;
18443;SDS011;9350;53.176;8.194;2023-12-22T05:36:33;8.02;;;1.65;;
18443;SDS011;9350;53.176;8.194;2023-12-22T05:38:59;8.52;;;1.30;;
18443;SDS011;9350;53.176;8.194;2023-12-22T05:41:26;12.40;;;1.65;;
18443;SDS011;9350;53.176;8.194;2023-12-22T05:43:53;9.52;;;2.22;;
18443;SDS011;9350;53.176;8.194;2023-12-22T05:46:20;13.48;;;2.00;;
18443;SDS011;9350;53.176;8.194;2023-12-22T05:48:48;7.47;;;1.60;;
18443;SDS011;9350;53.176;8.194;2023-12-22T05:51:15;10.68;;;1.90;;
18443;SDS011;9350;53.176;8.194;2023-12-22T05:53:42;11.23;;;1.80;;
18443;SDS011;9350;53.176;8.194;2023-12-22T05:56:18;13.23;;;2.60;;
18443;SDS011;9350;53.176;8.194;2023-12-22T05:58:45;12.00;;;2.10;;
18443;SDS011;9350;53.176;8.194;2023-12-22T06:01:15;13.45;;;2.30;;
18443;SDS011;9350;53.176;8.194;2023-12-22T06:03:43;11.50;;;2.20;;
18443;SDS011;9350;53.176;8.194;2023-12-22T06:06:11;16.70;;;2.55;;
18443;SDS011;9350;53.176;8.194;2023-12-22T06:08:38;18.55;;;2.65;;
18443;SDS011;9350;53.176;8.194;2023-12-22T06:11:05;9.18;;;2.40;;
18443;SDS011;9350;53.176;8.194;2023-12-22T06:13:32;15.05;;;2.30;;
18443;SDS011;9350;53.176;8.194;2023-12-22T06:15:58;20.00;;;2.70;;
18443;SDS011;9350;53.176;8.194;2023-12-22T06:18:25;14.48;;;2.38;;
18443;SDS011;9350;53.176;8.194;2023-12-22T06:20:52;18.15;;;2.55;;
18443;SDS011;9350;53.176;8.194;2023-12-22T06:23:20;18.08;;;2.53;;
18443;SDS011;9350;53.176;8.194;2023-12-22T06:25:47;20.38;;;2.63;;
18443;SDS011;9350;53.176;8.194;2023-12-22T06:28:14;13.43;;;2.47;;
18443;SDS011;9350;53.176;8.194;2023-12-22T06:30:42;21.50;;;2.42;;
18443;SDS011;9350;53.176;8.194;2023-12-22T06:33:10;15.93;;;2.50;;
18443;SDS011;9350;53.176;8.194;2023-12-22T06:35:37;16.92;;;3.03;;
18443;SDS011;9350;53.176;8.194;2023-12-22T06:38:05;17.33;;;3.05;;
18443;SDS011;9350;53.176;8.194;2023-12-22T06:40:35;24.40;;;3.45;;
18443;SDS011;9350;53.176;8.194;2023-12-22T06:43:02;23.90;;;3.47;;
18443;SDS011;9350;53.176;8.194;2023-12-22T06:45:29;29.20;;;4.10;;
18443;SDS011;9350;53.176;8.194;2023-12-22T06:47:56;20.27;;;3.50;;
18443;SDS011;9350;53.176;8.194;2023-12-22T06:50:23;28.35;;;3.70;;
18443;SDS011;9350;53.176;8.194;2023-12-22T06:52:49;26.02;;;3.95;;
18443;SDS011;9350;53.176;8.194;2023-12-22T06:55:16;23.95;;;3.67;;
18443;SDS011;9350;53.176;8.194;2023-12-22T06:57:44;24.50;;;3.40;;
18443;SDS011;9350;53.176;8.194;2023-12-22T07:00:11;19.23;;;3.63;;
18443;SDS011;9350;53.176;8.194;2023-12-22T07:02:39;30.70;;;3.80;;
18443;SDS011;9350;53.176;8.194;2023-12-22T07:08:04;22.15;;;3.42;;
18443;SDS011;9350;53.176;8.194;2023-12-22T07:10:32;27.30;;;3.35;;
18443;SDS011;9350;53.176;8.194;2023-12-22T07:13:00;17.10;;;2.97;;
18443;SDS011;9350;53.176;8.194;2023-12-22T07:15:27;15.80;;;3.13;;
18443;SDS011;9350;53.176;8.194;2023-12-22T07:17:53;21.98;;;2.92;;
18443;SDS011;9350;53.176;8.194;2023-12-22T07:20:21;16.38;;;2.67;;
18443;SDS011;9350;53.176;8.194;2023-12-22T07:22:48;16.40;;;2.78;;
18443;SDS011;9350;53.176;8.194;2023-12-22T07:25:16;19.70;;;2.95;;
18443;SDS011;9350;53.176;8.194;2023-12-22T07:27:44;17.67;;;2.95;;
18443;SDS011;9350;53.176;8.194;2023-12-22T07:30:13;12.50;;;2.85;;
18443;SDS011;9350;53.176;8.194;2023-12-22T07:32:43;15.40;;;2.30;;
18443;SDS011;9350;53.176;8.194;2023-12-22T07:35:12;18.15;;;3.28;;
18443;SDS011;9350;53.176;8.194;2023-12-22T07:37:39;26.30;;;3.10;;
18443;SDS011;9350;53.176;8.194;2023-12-22T07:40:06;17.05;;;2.60;;
18443;SDS011;9350;53.176;8.194;2023-12-22T07:42:34;17.15;;;2.97;;
18443;SDS011;9350;53.176;8.194;2023-12-22T07:45:01;13.95;;;2.70;;
18443;SDS011;9350;53.176;8.194;2023-12-22T07:47:30;21.98;;;3.58;;
18443;SDS011;9350;53.176;8.194;2023-12-22T07:49:58;15.63;;;2.85;;
18443;SDS011;9350;53.176;8.194;2023-12-22T07:52:25;19.83;;;3.20;;
18443;SDS011;9350;53.176;8.194;2023-12-22T07:54:51;22.13;;;3.00;;
18443;SDS011;9350;53.176;8.194;2023-12-22T07:57:18;21.63;;;3.42;;
18443;SDS011;9350;53.176;8.194;2023-12-22T07:59:45;21.23;;;2.92;;
18443;SDS011;9350;53.176;8.194;2023-12-22T08:02:12;27.30;;;4.10;;
18443;SDS011;9350;53.176;8.194;2023-12-22T08:04:40;16.45;;;3.40;;
18443;SDS011;9350;53.176;8.194;2023-12-22T08:07:06;23.33;;;3.35;;
18443;SDS011;9350;53.176;8.194;2023-12-22T08:09:33;15.65;;;3.08;;
18443;SDS011;9350;53.176;8.194;2023-12-22T08:11:59;21.90;;;3.47;;
18443;SDS011;9350;53.176;8.194;2023-12-22T08:14:26;29.98;;;3.55;;
18443;SDS011;9350;53.176;8.194;2023-12-22T08:16:53;18.83;;;2.72;;
18443;SDS011;9350;53.176;8.194;2023-12-22T08:19:20;25.65;;;3.38;;
18443;SDS011;9350;53.176;8.194;2023-12-22T08:21:48;14.82;;;2.97;;
18443;SDS011;9350;53.176;8.194;2023-12-22T08:24:15;25.27;;;3.38;;
18443;SDS011;9350;53.176;8.194;2023-12-22T08:26:42;17.42;;;2.70;;
18443;SDS011;9350;53.176;8.194;2023-12-22T08:29:09;25.80;;;3.17;;
18443;SDS011;9350;53.176;8.194;2023-12-22T08:31:35;19.23;;;2.60;;
18443;SDS011;9350;53.176;8.194;2023-12-22T08:34:02;19.10;;;2.70;;
18443;SDS011;9350;53.176;8.194;2023-12-22T08:36:30;23.88;;;2.88;;
18443;SDS011;9350;53.176;8.194;2023-12-22T08:38:58;18.98;;;2.70;;
18443;SDS011;9350;53.176;8.194;2023-12-22T08:41:25;15.95;;;3.30;;
18443;SDS011;9350;53.176;8.194;2023-12-22T08:43:52;18.52;;;3.03;;
18443;SDS011;9350;53.176;8.194;2023-12-22T08:46:19;17.38;;;2.40;;
18443;SDS011;9350;53.176;8.194;2023-12-22T08:48:46;15.15;;;2.60;;
18443;SDS011;9350;53.176;8.194;2023-12-22T08:51:12;10.45;;;1.90;;
18443;SDS011;9350;53.176;8.194;2023-12-22T08:53:40;12.35;;;2.30;;
18443;SDS011;9350;53.176;8.194;2023-12-22T08:56:08;16.50;;;2.20;;
18443;SDS011;9350;53.176;8.194;2023-12-22T08:58:34;12.35;;;2.40;;
18443;SDS011;9350;53.176;8.194;2023-12-22T09:01:01;13.05;;;2.55;;
18443;SDS011;9350;53.176;8.194;2023-12-22T09:03:28;18.33;;;2.22;;
18443;SDS011;9350;53.176;8.194;2023-12-22T09:05:58;20.67;;;3.20;;
18443;SDS011;9350;53.176;8.194;2023-12-22T09:08:25;17.67;;;2.90;;
18443;SDS011;9350;53.176;8.194;2023-12-22T09:10:52;16.77;;;3.42;;
18443;SDS011;9350;53.176;8.194;2023-12-22T09:13:20;13.75;;;2.45;;
18443;SDS011;9350;53.176;8.194;2023-12-22T09:15:49;18.02;;;2.33;;
18443;SDS011;9350;53.176;8.194;2023-12-22T09:18:16;6.70;;;1.80;;
18443;SDS011;9350;53.176;8.194;2023-12-22T09:20:43;9.05;;;1.50;;
18443;SDS011;9350;53.176;8.194;2023-12-22T09:23:10;10.73;;;1.85;;
18443;SDS011;9350;53.176;8.194;2023-12-22T09:25:36;8.88;;;1.73;;
18443;SDS011;9350;53.176;8.194;2023-12-22T09:28:04;9.77;;;1.80;;
18443;SDS011;9350;53.176;8.194;2023-12-22T09:30:32;12.25;;;2.38;;
18443;SDS011;9350;53.176;8.194;2023-12-22T09:32:59;9.35;;;1.80;;
18443;SDS011;9350;53.176;8.194;2023-12-22T09:35:26;4.68;;;1.60;;
18443;SDS011;9350;53.176;8.194;2023-12-22T09:37:53;9.43;;;2.30;;
18443;SDS011;9350;53.176;8.194;2023-12-22T09:40:20;6.72;;;1.70;;
18443;SDS011;9350;53.176;8.194;2023-12-22T09:42:47;10.98;;;2.10;;
18443;SDS011;9350;53.176;8.194;2023-12-22T09:45:16;9.02;;;2.13;;
18443;SDS011;9350;53.176;8.194;2023-12-22T09:47:46;12.25;;;1.65;;
18443;SDS011;9350;53.176;8.194;2023-12-22T09:50:14;11.65;;;2.08;;
18443;SDS011;9350;53.176;8.194;2023-12-22T09:52:41;12.75;;;1.90;;
18443;SDS011;9350;53.176;8.194;2023-12-22T09:55:10;6.13;;;1.83;;
18443;SDS011;9350;53.176;8.194;2023-12-22T09:57:38;17.35;;;2.30;;
18443;SDS011;9350;53.176;8.194;2023-12-22T10:00:06;9.40;;;2.33;;
18443;SDS011;9350;53.176;8.194;2023-12-22T10:02:36;14.98;;;2.50;;
18443;SDS011;9350;53.176;8.194;2023-12-22T10:05:04;17.52;;;2.35;;
18443;SDS011;9350;53.176;8.194;2023-12-22T10:07:31;10.57;;;2.22;;
18443;SDS011;9350;53.176;8.194;2023-12-22T10:09:59;15.32;;;2.55;;
18443;SDS011;9350;53.176;8.194;2023-12-22T10:12:27;12.82;;;2.28;;
18443;SDS011;9350;53.176;8.194;2023-12-22T10:14:56;12.48;;;2.53;;
18443;SDS011;9350;53.176;8.194;2023-12-22T10:17:25;15.23;;;2.60;;
18443;SDS011;9350;53.176;8.194;2023-12-22T10:19:52;16.48;;;2.25;;
18443;SDS011;9350;53.176;8.194;2023-12-22T10:22:20;20.23;;;2.60;;
18443;SDS011;9350;53.176;8.194;2023-12-22T10:24:49;11.68;;;1.90;;
18443;SDS011;9350;53.176;8.194;2023-12-22T10:27:17;17.45;;;2.47;;
18443;SDS011;9350;53.176;8.194;2023-12-22T10:29:47;11.85;;;2.28;;
18443;SDS011;9350;53.176;8.194;2023-12-22T10:32:14;10.18;;;2.38;;
18443;SDS011;9350;53.176;8.194;2023-12-22T10:34:41;12.70;;;2.20;;
18443;SDS011;9350;53.176;8.194;2023-12-22T10:37:08;18.98;;;3.13;;
18443;SDS011;9350;53.176;8.194;2023-12-22T10:39:37;14.65;;;2.47;;
18443;SDS011;9350;53.176;8.194;2023-12-22T10:42:04;10.20;;;2.50;;
18443;SDS011;9350;53.176;8.194;2023-12-22T10:44:31;11.70;;;2.25;;
18443;SDS011;9350;53.176;8.194;2023-12-22T10:46:58;16.02;;;3.30;;
18443;SDS011;9350;53.176;8.194;2023-12-22T10:49:27;14.93;;;2.20;;
18443;SDS011;9350;53.176;8.194;2023-12-22T10:51:54;18.05;;;3.17;;
18443;SDS011;9350;53.176;8.194;2023-12-22T10:54:21;12.13;;;2.70;;
18443;SDS011;9350;53.176;8.194;2023-12-22T10:56:49;22.20;;;2.83;;
18443;SDS011;9350;53.176;8.194;2023-12-22T10:59:18;12.48;;;2.03;;
18443;SDS011;9350;53.176;8.194;2023-12-22T11:01:47;22.10;;;2.60;;
18443;SDS011;9350;53.176;8.194;2023-12-22T11:04:19;7.55;;;2.28;;
18443;SDS011;9350;53.176;8.194;2023-12-22T11:06:48;8.63;;;2.50;;
18443;SDS011;9350;53.176;8.194;2023-12-22T11:09:18;14.60;;;2.83;;
18443;SDS011;9350;53.176;8.194;2023-12-22T11:11:47;11.80;;;2.03;;
18443;SDS011;9350;53.176;8.194;2023-12-22T11:14:16;16.83;;;2.92;;
18443;SDS011;9350;53.176;8.194;2023-12-22T11:16:45;16.27;;;2.50;;
18443;SDS011;9350;53.176;8.194;2023-12-22T11:19:13;13.18;;;2.70;;
18443;SDS011;9350;53.176;8.194;2023-12-22T11:21:41;17.52;;;2.60;;
18443;SDS011;9350;53.176;8.194;2023-12-22T11:24:09;14.98;;;2.55;;
18443;SDS011;9350;53.176;8.194;2023-12-22T11:26:39;27.30;;;2.83;;
18443;SDS011;9350;53.176;8.194;2023-12-22T11:29:10;10.68;;;2.40;;
18443;SDS011;9350;53.176;8.194;2023-12-22T11:31:37;10.77;;;1.90;;
18443;SDS011;9350;53.176;8.194;2023-12-22T11:34:06;18.00;;;2.63;;
18443;SDS011;9350;53.176;8.194;2023-12-22T11:36:34;13.02;;;1.92;;
18443;SDS011;9350;53.176;8.194;2023-12-22T11:39:04;11.27;;;2.88;;
18443;SDS011;9350;53.176;8.194;2023-12-22T11:41:32;14.38;;;2.05;;
18443;SDS011;9350;53.176;8.194;2023-12-22T11:44:01;9.38;;;2.20;;
18443;SDS011;9350;53.176;8.194;2023-12-22T11:46:32;18.60;;;1.73;;
18443;SDS011;9350;53.176;8.194;2023-12-22T11:48:59;10.13;;;1.80;;
18443;SDS011;9350;53.176;8.194;2023-12-22T11:51:31;15.68;;;2.00;;
18443;SDS011;9350;53.176;8.194;2023-12-22T11:53:59;11.13;;;1.92;;
18443;SDS011;9350;53.176;8.194;2023-12-22T11:56:26;10.98;;;1.85;;
18443;SDS011;9350;53.176;8.194;2023-12-22T11:58:55;13.70;;;2.10;;
18443;SDS011;9350;53.176;8.194;2023-12-22T12:01:24;10.68;;;2.33;;
18443;SDS011;9350;53.176;8.194;2023-12-22T12:03:55;8.65;;;1.80;;
18443;SDS011;9350;53.176;8.194;2023-12-22T12:06:30;9.82;;;1.95;;
18443;SDS011;9350;53.176;8.194;2023-12-22T12:08:58;10.68;;;1.67;;
18443;SDS011;9350;53.176;8.194;2023-12-22T12:14:40;11.23;;;1.85;;
18443;SDS011;9350;53.176;8.194;2023-12-22T12:17:09;17.02;;;2.15;;
18443;SDS011;9350;53.176;8.194;2023-12-22T12:19:38;10.10;;;1.83;;
18443;SDS011;9350;53.176;8.194;2023-12-22T12:22:07;17.23;;;2.47;;
18443;SDS011;9350;53.176;8.194;2023-12-22T12:24:35;14.05;;;2.60;;
18443;SDS011;9350;53.176;8.194;2023-12-22T12:27:02;13.43;;;2.15;;
18443;SDS011;9350;53.176;8.194;2023-12-22T12:29:30;9.82;;;2.15;;
18443;SDS011;9350;53.176;8.194;2023-12-22T12:32:02;11.27;;;1.75;;
18443;SDS011;9350;53.176;8.194;2023-12-22T12:34:30;7.05;;;1.42;;
18443;SDS011;9350;53.176;8.194;2023-12-22T12:36:59;11.15;;;1.70;;
18443;SDS011;9350;53.176;8.194;2023-12-22T12:39:28;14.45;;;2.47;;
18443;SDS011;9350;53.176;8.194;2023-12-22T12:41:57;12.38;;;2.10;;
18443;SDS011;9350;53.176;8.194;2023-12-22T12:44:27;6.65;;;1.55;;
18443;SDS011;9350;53.176;8.194;2023-12-22T12:46:55;7.95;;;1.90;;
18443;SDS011;9350;53.176;8.194;2023-12-22T12:49:23;9.15;;;1.70;;
18443;SDS011;9350;53.176;8.194;2023-12-22T12:51:54;5.93;;;1.60;;
18443;SDS011;9350;53.176;8.194;2023-12-22T12:54:22;9.52;;;1.77;;
18443;SDS011;9350;53.176;8.194;2023-12-22T12:56:49;6.25;;;1.90;;
18443;SDS011;9350;53.176;8.194;2023-12-22T12:59:17;9.65;;;1.80;;
18443;SDS011;9350;53.176;8.194;2023-12-22T13:01:45;8.43;;;1.63;;
18443;SDS011;9350;53.176;8.194;2023-12-22T13:04:12;10.63;;;1.83;;
18443;SDS011;9350;53.176;8.194;2023-12-22T13:06:43;11.82;;;2.33;;
18443;SDS011;9350;53.176;8.194;2023-12-22T13:09:10;9.25;;;1.80;;
18443;SDS011;9350;53.176;8.194;2023-12-22T13:11:39;12.00;;;1.67;;
18443;SDS011;9350;53.176;8.194;2023-12-22T13:14:07;14.27;;;1.92;;
18443;SDS011;9350;53.176;8.194;2023-12-22T13:16:34;12.95;;;2.30;;
18443;SDS011;9350;53.176;8.194;2023-12-22T13:19:01;10.55;;;1.60;;
18443;SDS011;9350;53.176;8.194;2023-12-22T13:21:28;9.70;;;1.88;;
18443;SDS011;9350;53.176;8.194;2023-12-22T13:24:08;15.32;;;1.98;;
18443;SDS011;9350;53.176;8.194;2023-12-22T13:26:36;13.75;;;1.80;;
18443;SDS011;9350;53.176;8.194;2023-12-22T13:29:04;8.10;;;1.88;;
18443;SDS011;9350;53.176;8.194;2023-12-22T13:31:31;12.55;;;2.00;;
18443;SDS011;9350;53.176;8.194;2023-12-22T13:33:59;12.60;;;1.70;;
18443;SDS011;9350;53.176;8.194;2023-12-22T13:36:26;11.63;;;1.98;;
18443;SDS011;9350;53.176;8.194;2023-12-22T13:38:53;16.10;;;2.08;;
18443;SDS011;9350;53.176;8.194;2023-12-22T13:41:20;12.93;;;1.63;;
18443;SDS011;9350;53.176;8.194;2023-12-22T13:43:47;9.18;;;2.42;;
18443;SDS011;9350;53.176;8.194;2023-12-22T13:46:15;12.27;;;1.70;;
18443;SDS011;9350;53.176;8.194;2023-12-22T13:48:43;8.25;;;1.80;;
18443;SDS011;9350;53.176;8.194;2023-12-22T13:51:10;11.15;;;1.75;;
18443;SDS011;9350;53.176;8.194;2023-12-22T13:53:46;11.25;;;1.90;;
18443;SDS011;9350;53.176;8.194;2023-12-22T13:56:13;9.63;;;2.33;;
18443;SDS011;9350;53.176;8.194;2023-12-22T13:58:43;10.55;;;1.75;;
18443;SDS011;9350;53.176;8.194;2023-12-22T14:01:12;12.07;;;2.00;;
18443;SDS011;9350;53.176;8.194;2023-12-22T14:03:41;8.80;;;2.10;;
18443;SDS011;9350;53.176;8.194;2023-12-22T14:06:08;14.63;;;1.90;;
18443;SDS011;9350;53.176;8.194;2023-12-22T14:08:37;10.02;;;1.73;;
18443;SDS011;9350;53.176;8.194;2023-12-22T14:11:05;8.98;;;1.73;;
18443;SDS011;9350;53.176;8.194;2023-12-22T14:13:32;15.13;;;2.10;;
18443;SDS011;9350;53.176;8.194;2023-12-22T14:16:00;9.43;;;1.90;;
18443;SDS011;9350;53.176;8.194;2023-12-22T14:18:27;9.93;;;1.92;;
18443;SDS011;9350;53.176;8.194;2023-12-22T14:20:55;13.23;;;1.95;;
18443;SDS011;9350;53.176;8.194;2023-12-22T14:23:23;11.40;;;1.85;;
18443;SDS011;9350;53.176;8.194;2023-12-22T14:25:50;12.07;;;1.58;;
18443;SDS011;9350;53.176;8.194;2023-12-22T14:28:18;6.20;;;1.92;;
18443;SDS011;9350;53.176;8.194;2023-12-22T14:30:45;15.20;;;1.70;;
18443;SDS011;9350;53.176;8.194;2023-12-22T14:33:12;6.65;;;1.35;;
18443;SDS011;9350;53.176;8.194;2023-12-22T14:35:39;9.10;;;1.20;;
18443;SDS011;9350;53.176;8.194;2023-12-22T14:38:07;3.45;;;1.00;;
18443;SDS011;9350;53.176;8.194;2023-12-22T14:40:34;3.88;;;1.38;;
18443;SDS011;9350;53.176;8.194;2023-12-22T14:43:01;3.13;;;0.93;;
18443;SDS011;9350;53.176;8.194;2023-12-22T14:45:28;4.38;;;1.20;;
18443;SDS011;9350;53.176;8.194;2023-12-22T14:47:55;3.95;;;1.10;;
18443;SDS011;9350;53.176;8.194;2023-12-22T14:50:21;5.60;;;1.65;;
18443;SDS011;9350;53.176;8.194;2023-12-22T14:52:48;3.38;;;1.17;;
18443;SDS011;9350;53.176;8.194;2023-12-22T14:55:16;5.45;;;0.98;;
18443;SDS011;9350;53.176;8.194;2023-12-22T14:57:43;3.72;;;1.60;;
18443;SDS011;9350;53.176;8.194;2023-12-22T15:00:10;2.17;;;1.08;;